Time;durP1;ratioP1;P1;durP2;ratioP2;P2;SDS_P1;SDS_P2;PMS_P1;PMS_P2;Temp;Humidity;BMP_temperature;BMP_pressure;BME280_temperature;BME280_humidity;BME280_pressure;Samples;Min_cycle;Max_cycle;Signal;HPM_P1;HPM_P2
2021/07/13 00:01:15;;;;;;;4.20;3.50;;;;;;;;;;5008307;28;20036;-68
2021/07/13 00:03:40;;;;;;;4.30;3.90;;;;;;;;;;5008552;28;20293;-68
2021/07/13 00:06:06;;;;;;;3.90;3.60;;;;;;;;;;5009001;28;20076;-68
2021/07/13 00:08:31;;;;;;;3.88;3.55;;;;;;;;;;5009398;28;20253;-68
2021/07/13 00:10:56;;;;;;;4.88;3.58;;;;;;;;;;5011280;28;20076;-68
2021/07/13 00:13:21;;;;;;;3.80;3.50;;;;;;;;;;5007541;28;20061;-69
2021/07/13 00:15:47;;;;;;;6.78;3.38;;;;;;;;;;5009313;28;20654;-68
2021/07/13 00:18:12;;;;;;;4.45;3.45;;;;;;;;;;5008767;28;20216;-68
2021/07/13 00:20:38;;;;;;;3.83;3.10;;;;;;;;;;5007694;28;20010;-68
2021/07/13 00:23:03;;;;;;;4.07;3.15;;;;;;;;;;5010446;28;20033;-68
2021/07/13 00:25:29;;;;;;;3.65;3.35;;;;;;;;;;5009076;28;20124;-68
2021/07/13 00:27:55;;;;;;;4.18;3.10;;;;;;;;;;5008970;28;20049;-69
2021/07/13 00:30:20;;;;;;;4.55;3.28;;;;;;;;;;5009081;28;20026;-68
2021/07/13 00:32:46;;;;;;;3.30;3.00;;;;;;;;;;5007266;28;20022;-68
2021/07/13 00:35:11;;;;;;;3.80;3.50;;;;;;;;;;5010563;28;20517;-68
2021/07/13 00:37:37;;;;;;;3.95;3.38;;;;;;;;;;5008915;28;20180;-68
2021/07/13 00:40:03;;;;;;;4.35;3.47;;;;;;;;;;5008624;28;20042;-68
2021/07/13 00:42:29;;;;;;;3.92;3.00;;;;;;;;;;5006618;28;20038;-68
2021/07/13 00:44:54;;;;;;;5.07;3.30;;;;;;;;;;5008855;28;20018;-68
2021/07/13 00:47:20;;;;;;;4.40;3.43;;;;;;;;;;5010732;28;20265;-67
2021/07/13 00:49:46;;;;;;;3.38;3.17;;;;;;;;;;5008232;28;20280;-68
2021/07/13 00:52:12;;;;;;;6.47;3.13;;;;;;;;;;5008159;28;20064;-68
2021/07/13 00:54:37;;;;;;;3.97;3.20;;;;;;;;;;5008754;28;20483;-67
2021/07/13 00:57:09;;;;;;;3.88;3.15;;;;;;;;;;5008875;28;20041;-68
2021/07/13 00:59:35;;;;;;;3.65;3.03;;;;;;;;;;5009021;28;20032;-68
2021/07/13 01:02:00;;;;;;;3.88;3.05;;;;;;;;;;5010801;28;20018;-68
2021/07/13 01:04:26;;;;;;;4.70;3.50;;;;;;;;;;5003216;28;20389;-68
2021/07/13 01:06:51;;;;;;;3.63;3.33;;;;;;;;;;5006262;28;20104;-68
2021/07/13 01:09:39;;;;;;;3.70;3.40;;;;;;;;;;5008480;28;20117;-68
2021/07/13 01:12:25;;;;;;;5.85;3.33;;;;;;;;;;5002835;28;20308;-68
2021/07/13 01:14:54;;;;;;;3.60;3.30;;;;;;;;;;5008064;28;20042;-68
2021/07/13 01:17:25;;;;;;;3.90;3.35;;;;;;;;;;5010411;28;20101;-68
2021/07/13 01:20:06;;;;;;;3.85;2.90;;;;;;;;;;5007902;28;20126;-68
2021/07/13 01:22:37;;;;;;;3.85;3.55;;;;;;;;;;5007582;28;20129;-68
2021/07/13 01:25:08;;;;;;;4.13;3.77;;;;;;;;;;5008421;28;20093;-67
2021/07/13 01:27:45;;;;;;;4.35;3.50;;;;;;;;;;5011523;28;20036;-68
2021/07/13 01:30:28;;;;;;;3.58;3.08;;;;;;;;;;5011070;28;20033;-68
2021/07/13 01:33:02;;;;;;;4.53;3.38;;;;;;;;;;5011979;28;20142;-68
2021/07/13 01:35:31;;;;;;;7.22;3.83;;;;;;;;;;5013505;28;20022;-67
2021/07/13 01:37:57;;;;;;;5.25;3.67;;;;;;;;;;5012542;28;20034;-68
2021/07/13 01:40:23;;;;;;;4.82;3.40;;;;;;;;;;5012238;28;20036;-67
2021/07/13 01:42:49;;;;;;;5.90;3.50;;;;;;;;;;5011387;28;20030;-67
2021/07/13 01:45:15;;;;;;;4.43;3.75;;;;;;;;;;5011791;28;20037;-67
2021/07/13 01:47:40;;;;;;;3.65;3.45;;;;;;;;;;5011700;28;20022;-67
2021/07/13 01:50:07;;;;;;;3.97;3.53;;;;;;;;;;5013455;28;20010;-68
2021/07/13 01:52:33;;;;;;;4.22;3.47;;;;;;;;;;5011275;28;20494;-67
2021/07/13 01:54:58;;;;;;;8.07;3.75;;;;;;;;;;5011933;28;20040;-68
2021/07/13 01:57:25;;;;;;;6.22;3.78;;;;;;;;;;5011813;28;20073;-68
2021/07/13 01:59:51;;;;;;;3.80;3.20;;;;;;;;;;5011548;28;20042;-68
2021/07/13 02:02:17;;;;;;;4.10;3.80;;;;;;;;;;5013324;28;20032;-68
2021/07/13 02:04:43;;;;;;;3.88;3.45;;;;;;;;;;5011266;28;20053;-68
2021/07/13 02:07:09;;;;;;;4.97;3.53;;;;;;;;;;5011714;28;20038;-67
2021/07/13 02:09:35;;;;;;;4.13;3.63;;;;;;;;;;5010359;28;20053;-67
2021/07/13 02:12:01;;;;;;;4.40;3.70;;;;;;;;;;5011458;28;20041;-68
2021/07/13 02:14:27;;;;;;;3.53;3.30;;;;;;;;;;5013188;28;20463;-68
2021/07/13 02:16:52;;;;;;;5.55;4.10;;;;;;;;;;5011806;28;20117;-69
2021/07/13 02:19:18;;;;;;;4.18;3.83;;;;;;;;;;5011079;28;20033;-67
2021/07/13 02:21:43;;;;;;;3.75;3.42;;;;;;;;;;5011083;28;20057;-68
2021/07/13 02:24:09;;;;;;;4.63;4.22;;;;;;;;;;5009449;28;20041;-67
2021/07/13 02:26:44;;;;;;;4.38;3.20;;;;;;;;;;5011361;28;20414;-67
2021/07/13 02:29:30;;;;;;;4.43;4.03;;;;;;;;;;5012922;28;20033;-67
2021/07/13 02:32:03;;;;;;;4.60;4.07;;;;;;;;;;5010495;28;20026;-68
2021/07/13 02:34:29;;;;;;;5.95;4.28;;;;;;;;;;5010282;28;20038;-68
2021/07/13 02:36:57;;;;;;;4.05;3.63;;;;;;;;;;5010278;28;20126;-72
2021/07/13 02:39:22;;;;;;;4.32;3.92;;;;;;;;;;5009223;28;20407;-67
2021/07/13 02:41:49;;;;;;;4.63;4.28;;;;;;;;;;5010962;28;20100;-68
2021/07/13 02:44:15;;;;;;;4.43;4.13;;;;;;;;;;5011029;28;20026;-67
2021/07/13 02:46:44;;;;;;;4.40;4.00;;;;;;;;;;5011115;28;20052;-68
2021/07/13 02:49:30;;;;;;;6.90;4.43;;;;;;;;;;5010548;28;20084;-68
2021/07/13 02:51:57;;;;;;;5.40;4.43;;;;;;;;;;5010457;28;20069;-68
2021/07/13 02:54:24;;;;;;;4.85;4.30;;;;;;;;;;5010249;28;20056;-67
2021/07/13 02:56:49;;;;;;;4.85;4.45;;;;;;;;;;5009294;28;20033;-68
2021/07/13 02:59:16;;;;;;;4.63;4.22;;;;;;;;;;5012500;28;20018;-68
2021/07/13 03:01:42;;;;;;;6.85;4.55;;;;;;;;;;5009711;28;20029;-68
2021/07/13 03:04:08;;;;;;;4.55;4.22;;;;;;;;;;5024480;28;20042;-67
2021/07/13 03:06:34;;;;;;;4.05;3.70;;;;;;;;;;5010319;28;20026;-67
2021/07/13 03:09:00;;;;;;;5.03;4.53;;;;;;;;;;5009328;28;20033;-69
2021/07/13 03:11:25;;;;;;;4.78;3.95;;;;;;;;;;5012547;28;20025;-67
2021/07/13 03:13:51;;;;;;;4.85;4.45;;;;;;;;;;5009683;28;20030;-68
2021/07/13 03:16:16;;;;;;;7.30;5.18;;;;;;;;;;5010471;28;20057;-67
2021/07/13 03:18:41;;;;;;;4.80;4.38;;;;;;;;;;5010294;28;20023;-67
2021/07/13 03:21:07;;;;;;;4.78;4.38;;;;;;;;;;5009518;28;20030;-67
2021/07/13 03:23:37;;;;;;;6.72;4.90;;;;;;;;;;5009616;28;20030;-67
2021/07/13 03:26:03;;;;;;;6.03;4.80;;;;;;;;;;5011960;28;20084;-67
2021/07/13 03:28:29;;;;;;;5.13;4.72;;;;;;;;;;5010100;28;20073;-68
2021/07/13 03:30:55;;;;;;;4.82;4.43;;;;;;;;;;5008738;28;20042;-68
2021/07/13 03:33:20;;;;;;;7.32;5.15;;;;;;;;;;5008385;28;20380;-69
2021/07/13 03:35:46;;;;;;;5.70;5.00;;;;;;;;;;5009457;28;20117;-69
2021/07/13 03:38:12;;;;;;;4.63;4.32;;;;;;;;;;5011790;28;20102;-68
2021/07/13 03:40:37;;;;;;;5.65;5.13;;;;;;;;;;5009883;28;20034;-68
2021/07/13 03:43:03;;;;;;;5.38;4.88;;;;;;;;;;5009190;28;20037;-67
2021/07/13 03:45:29;;;;;;;4.70;4.30;;;;;;;;;;5008474;28;20030;-68
2021/07/13 03:47:57;;;;;;;5.30;4.63;;;;;;;;;;5009681;28;20057;-68
2021/07/13 03:50:24;;;;;;;4.82;4.43;;;;;;;;;;5010804;28;20098;-68
2021/07/13 03:52:49;;;;;;;5.22;4.82;;;;;;;;;;5009003;28;20038;-68
2021/07/13 03:55:15;;;;;;;5.25;4.75;;;;;;;;;;5009826;28;20491;-69
2021/07/13 03:57:40;;;;;;;5.07;4.65;;;;;;;;;;5009761;28;20033;-69
2021/07/13 04:00:27;;;;;;;5.15;4.63;;;;;;;;;;5009761;28;20028;-67
2021/07/13 04:02:52;;;;;;;4.75;4.20;;;;;;;;;;5008845;28;20103;-68
2021/07/13 04:05:17;;;;;;;9.43;4.97;;;;;;;;;;5010882;28;20014;-68
2021/07/13 04:07:42;;;;;;;6.53;4.50;;;;;;;;;;5009276;28;20026;-68
2021/07/13 04:10:09;;;;;;;9.27;5.40;;;;;;;;;;5009428;28;20083;-69
2021/07/13 04:12:34;;;;;;;7.78;5.35;;;;;;;;;;5008771;28;20308;-67
2021/07/13 04:14:59;;;;;;;6.03;4.60;;;;;;;;;;5009164;28;20073;-68
2021/07/13 04:17:25;;;;;;;5.32;4.82;;;;;;;;;;5010301;28;20014;-68
2021/07/13 04:19:50;;;;;;;4.80;4.40;;;;;;;;;;5007417;28;20128;-68
2021/07/13 04:22:15;;;;;;;6.70;4.00;;;;;;;;;;5008669;28;20022;-69
2021/07/13 04:24:41;;;;;;;4.45;4.05;;;;;;;;;;5008987;28;20650;-68
2021/07/13 04:27:06;;;;;;;5.33;3.97;;;;;;;;;;5009094;28;20038;-68
2021/07/13 04:29:31;;;;;;;4.47;4.03;;;;;;;;;;5010792;28;20296;-68
2021/07/13 04:31:56;;;;;;;5.53;4.10;;;;;;;;;;5009116;28;20034;-68
2021/07/13 04:34:21;;;;;;;4.30;3.70;;;;;;;;;;5008048;28;20046;-68
2021/07/13 04:36:47;;;;;;;4.50;3.80;;;;;;;;;;5008605;28;20343;-68
2021/07/13 04:39:12;;;;;;;4.93;3.25;;;;;;;;;;5008840;28;20269;-68
2021/07/13 04:41:37;;;;;;;4.25;3.63;;;;;;;;;;5007604;28;20034;-68
2021/07/13 04:44:03;;;;;;;4.55;4.05;;;;;;;;;;5010323;28;20034;-68
2021/07/13 04:46:28;;;;;;;5.00;3.65;;;;;;;;;;5008930;28;20387;-68
2021/07/13 04:48:54;;;;;;;5.18;3.50;;;;;;;;;;5008665;28;20506;-69
2021/07/13 04:51:19;;;;;;;4.65;3.67;;;;;;;;;;5008078;28;20732;-68
2021/07/13 04:53:45;;;;;;;3.75;3.45;;;;;;;;;;5008389;28;20030;-68
2021/07/13 04:56:10;;;;;;;5.65;3.60;;;;;;;;;;5010697;28;20022;-68
2021/07/13 04:58:35;;;;;;;4.10;3.80;;;;;;;;;;5008530;28;20042;-68
2021/07/13 05:01:01;;;;;;;6.10;3.83;;;;;;;;;;5007804;28;20451;-68
2021/07/13 05:03:26;;;;;;;5.40;3.55;;;;;;;;;;5007867;28;20038;-69
2021/07/13 05:05:51;;;;;;;4.87;4.07;;;;;;;;;;5006323;28;20029;-69
2021/07/13 05:08:16;;;;;;;5.53;3.90;;;;;;;;;;5010520;28;20265;-69
2021/07/13 05:10:41;;;;;;;4.50;3.90;;;;;;;;;;5008620;28;20129;-69
2021/07/13 05:13:10;;;;;;;6.60;4.20;;;;;;;;;;5008008;28;20034;-69
2021/07/13 05:15:36;;;;;;;5.05;3.80;;;;;;;;;;5008713;28;20277;-69
2021/07/13 05:18:01;;;;;;;5.15;3.63;;;;;;;;;;5008653;28;20529;-69
2021/07/13 05:20:26;;;;;;;4.00;3.55;;;;;;;;;;5008699;28;20026;-69
2021/07/13 05:22:58;;;;;;;5.70;3.63;;;;;;;;;;5006364;28;20092;-68
2021/07/13 05:25:23;;;;;;;;;;;;;;;;;;5008834;28;20372;-68
2021/07/13 05:27:48;;;;;;;3.90;3.60;;;;;;;;;;5008576;28;20000;-68
2021/07/13 05:30:14;;;;;;;4.28;3.85;;;;;;;;;;5008599;28;20037;-68
2021/07/13 05:32:39;;;;;;;5.78;3.78;;;;;;;;;;5008032;28;20036;-68
2021/07/13 05:35:05;;;;;;;3.92;3.63;;;;;;;;;;5010236;28;20097;-68
2021/07/13 05:37:30;;;;;;;7.85;4.45;;;;;;;;;;5008334;28;20034;-69
2021/07/13 05:39:56;;;;;;;3.72;3.47;;;;;;;;;;5008416;28;20096;-68
2021/07/13 05:42:22;;;;;;;4.33;3.93;;;;;;;;;;5007889;28;20026;-68
2021/07/13 05:44:47;;;;;;;4.32;3.92;;;;;;;;;;5008626;28;20351;-69
2021/07/13 05:47:12;;;;;;;4.85;4.10;;;;;;;;;;5010299;28;20022;-68
2021/07/13 05:49:40;;;;;;;4.63;4.13;;;;;;;;;;5008140;28;20434;-69
2021/07/13 05:52:05;;;;;;;4.70;4.15;;;;;;;;;;5007360;28;20261;-69
2021/07/13 05:54:30;;;;;;;7.13;4.38;;;;;;;;;;5008038;28;20037;-70
2021/07/13 05:56:56;;;;;;;4.83;3.90;;;;;;;;;;5008452;28;20026;-70
2021/07/13 05:59:21;;;;;;;4.82;4.03;;;;;;;;;;5010501;28;20265;-68
2021/07/13 06:01:46;;;;;;;5.40;4.30;;;;;;;;;;5007162;28;20038;-69
2021/07/13 06:04:11;;;;;;;7.13;4.20;;;;;;;;;;5007641;28;20038;-70
2021/07/13 06:06:37;;;;;;;4.57;4.17;;;;;;;;;;5006293;28;20026;-69
2021/07/13 06:09:02;;;;;;;5.23;4.70;;;;;;;;;;5007739;28;20273;-69
2021/07/13 06:11:27;;;;;;;7.75;4.70;;;;;;;;;;5009833;28;20289;-69
2021/07/13 06:13:53;;;;;;;4.43;4.03;;;;;;;;;;5010313;28;20038;-70
2021/07/13 06:16:18;;;;;;;5.68;4.50;;;;;;;;;;5011964;28;20029;-71
2021/07/13 06:18:43;;;;;;;7.87;4.47;;;;;;;;;;5011616;28;20026;-69
2021/07/13 06:21:09;;;;;;;4.63;3.97;;;;;;;;;;5010941;28;20269;-70
2021/07/13 06:23:34;;;;;;;6.10;4.65;;;;;;;;;;5010344;28;20272;-68
2021/07/13 06:26:00;;;;;;;5.97;4.63;;;;;;;;;;5011800;28;20021;-69
2021/07/13 06:28:25;;;;;;;8.10;5.13;;;;;;;;;;5011090;28;20361;-69
2021/07/13 06:30:50;;;;;;;4.77;4.33;;;;;;;;;;5011012;28;20076;-69
2021/07/13 06:33:16;;;;;;;5.27;4.27;;;;;;;;;;5010839;28;20813;-70
2021/07/13 06:35:45;;;;;;;4.95;4.50;;;;;;;;;;5010631;28;20758;-70
2021/07/13 06:38:10;;;;;;;6.18;4.20;;;;;;;;;;5004850;28;20467;-69
2021/07/13 06:40:35;;;;;;;5.70;4.40;;;;;;;;;;5011210;28;20172;-69
2021/07/13 06:43:01;;;;;;;4.75;4.35;;;;;;;;;;5010303;28;20507;-70
2021/07/13 06:45:26;;;;;;;4.47;4.07;;;;;;;;;;5011160;28;20064;-69
2021/07/13 06:47:57;;;;;;;5.75;4.95;;;;;;;;;;5010881;28;20603;-69
2021/07/13 06:50:23;;;;;;;7.25;4.47;;;;;;;;;;5011286;28;20022;-69
2021/07/13 06:52:49;;;;;;;5.57;4.15;;;;;;;;;;5010246;28;20030;-69
2021/07/13 06:55:14;;;;;;;4.88;4.47;;;;;;;;;;5010887;28;20038;-69
2021/07/13 06:57:39;;;;;;;6.68;4.45;;;;;;;;;;5010891;28;20117;-70
2021/07/13 07:00:06;;;;;;;4.72;4.18;;;;;;;;;;5010617;28;20057;-70
2021/07/13 07:02:31;;;;;;;5.40;4.47;;;;;;;;;;5012163;28;20505;-70
2021/07/13 07:04:57;;;;;;;5.50;4.20;;;;;;;;;;5010539;28;20038;-70
2021/07/13 07:07:22;;;;;;;4.23;3.93;;;;;;;;;;5010130;28;20272;-68
2021/07/13 07:09:47;;;;;;;4.78;4.22;;;;;;;;;;5010380;28;20273;-69
2021/07/13 07:12:12;;;;;;;4.35;3.95;;;;;;;;;;5008645;28;20476;-70
2021/07/13 07:14:37;;;;;;;7.27;4.30;;;;;;;;;;5010548;28;20649;-70
2021/07/13 07:17:03;;;;;;;6.57;4.07;;;;;;;;;;5012313;28;20268;-70
2021/07/13 07:19:28;;;;;;;6.80;3.85;;;;;;;;;;5008804;28;20280;-69
2021/07/13 07:21:53;;;;;;;4.55;4.10;;;;;;;;;;5009653;28;20561;-70
2021/07/13 07:24:18;;;;;;;6.95;4.18;;;;;;;;;;5007621;28;20053;-69
2021/07/13 07:26:44;;;;;;;4.37;3.97;;;;;;;;;;5010249;28;20029;-69
2021/07/13 07:29:09;;;;;;;6.95;4.88;;;;;;;;;;5011973;28;20304;-69
2021/07/13 07:31:34;;;;;;;4.90;4.50;;;;;;;;;;5009985;28;20041;-69
2021/07/13 07:33:59;;;;;;;5.60;4.10;;;;;;;;;;5009195;28;20277;-69
2021/07/13 07:36:26;;;;;;;5.70;3.47;;;;;;;;;;5009369;28;20273;-70
2021/07/13 07:38:52;;;;;;;5.85;3.80;;;;;;;;;;5009588;28;20018;-70
2021/07/13 07:41:17;;;;;;;3.75;3.45;;;;;;;;;;5012001;28;20029;-70
2021/07/13 07:43:42;;;;;;;3.80;3.50;;;;;;;;;;5009162;28;20116;-70
2021/07/13 07:46:08;;;;;;;5.00;3.25;;;;;;;;;;5009779;28;20665;-70
2021/07/13 07:48:33;;;;;;;9.93;5.15;;;;;;;;;;5009573;28;20092;-69
2021/07/13 07:50:58;;;;;;;5.93;3.67;;;;;;;;;;5009218;28;20475;-70
2021/07/13 07:53:23;;;;;;;5.07;3.50;;;;;;;;;;5011246;28;20352;-70
2021/07/13 07:55:48;;;;;;;6.57;3.90;;;;;;;;;;5007855;28;20271;-71
2021/07/13 07:58:14;;;;;;;4.30;3.53;;;;;;;;;;5009642;28;20275;-72
2021/07/13 08:00:39;;;;;;;4.27;3.87;;;;;;;;;;5009484;28;20439;-70
2021/07/13 08:03:04;;;;;;;5.05;4.50;;;;;;;;;;5009121;28;20303;-70
2021/07/13 08:05:32;;;;;;;6.45;3.90;;;;;;;;;;5009880;28;20022;-71
2021/07/13 08:07:57;;;;;;;7.38;4.53;;;;;;;;;;5024269;28;20042;-70
2021/07/13 08:10:23;;;;;;;5.57;3.85;;;;;;;;;;5009293;28;20030;-70
2021/07/13 08:12:48;;;;;;;3.78;3.53;;;;;;;;;;5008888;28;20141;-71
2021/07/13 08:15:14;;;;;;;3.67;3.38;;;;;;;;;;5009518;28;20045;-71
2021/07/13 08:17:41;;;;;;;4.88;4.35;;;;;;;;;;5007955;28;20022;-70
2021/07/13 08:20:07;;;;;;;4.75;4.32;;;;;;;;;;5011223;28;20112;-71
2021/07/13 08:22:33;;;;;;;4.65;4.25;;;;;;;;;;5008157;28;20080;-71
2021/07/13 08:24:59;;;;;;;5.18;4.78;;;;;;;;;;5009060;28;20053;-70
2021/07/13 08:27:24;;;;;;;5.45;4.97;;;;;;;;;;5009077;28;20036;-70
2021/07/13 08:29:49;;;;;;;4.57;4.20;;;;;;;;;;5009337;28;20101;-70
2021/07/13 08:32:14;;;;;;;6.50;4.57;;;;;;;;;;5010483;28;20349;-69
2021/07/13 08:34:40;;;;;;;10.45;4.85;;;;;;;;;;5007442;28;20371;-69
2021/07/13 08:37:05;;;;;;;5.10;4.80;;;;;;;;;;5007816;28;20065;-70
2021/07/13 08:39:31;;;;;;;5.88;4.75;;;;;;;;;;5008805;28;20269;-70
2021/07/13 08:41:57;;;;;;;4.70;4.38;;;;;;;;;;5007500;28;20124;-69
2021/07/13 08:44:22;;;;;;;6.03;5.53;;;;;;;;;;5010457;28;20080;-69
2021/07/13 08:46:47;;;;;;;6.83;6.23;;;;;;;;;;5008928;28;20026;-70
2021/07/13 08:49:13;;;;;;;6.70;6.30;;;;;;;;;;5009033;28;20281;-70
2021/07/13 08:51:40;;;;;;;7.20;6.65;;;;;;;;;;5008607;28;20022;-72
2021/07/13 08:54:05;;;;;;;7.20;6.63;;;;;;;;;;5008702;28;20030;-70
2021/07/13 08:56:31;;;;;;;8.00;6.38;;;;;;;;;;5011056;28;20368;-70
2021/07/13 08:58:56;;;;;;;6.28;5.70;;;;;;;;;;5008514;28;20037;-70
2021/07/13 09:01:22;;;;;;;6.32;5.88;;;;;;;;;;5007476;28;20411;-71
2021/07/13 09:03:54;;;;;;;5.82;5.43;;;;;;;;;;5008346;28;20073;-71
2021/07/13 09:06:20;;;;;;;5.63;5.13;;;;;;;;;;5007998;28;20034;-71
2021/07/13 09:08:45;;;;;;;5.38;4.97;;;;;;;;;;5008187;28;20025;-70
2021/07/13 09:11:11;;;;;;;5.18;4.78;;;;;;;;;;5010260;28;20022;-71
2021/07/13 09:13:38;;;;;;;5.68;5.28;;;;;;;;;;5007968;28;20034;-70
2021/07/13 09:16:04;;;;;;;6.05;5.45;;;;;;;;;;5007090;28;20064;-70
2021/07/13 09:18:37;;;;;;;5.57;5.18;;;;;;;;;;5008696;28;20031;-70
2021/07/13 09:21:24;;;;;;;6.55;6.15;;;;;;;;;;5007741;28;20030;-70
2021/07/13 09:24:07;;;;;;;6.05;5.72;;;;;;;;;;5000389;28;20076;-70
2021/07/13 09:26:51;;;;;;;10.02;7.10;;;;;;;;;;5010182;28;20015;-70
2021/07/13 09:29:26;;;;;;;8.18;7.47;;;;;;;;;;5008841;28;20046;-69
2021/07/13 09:31:51;;;;;;;8.25;7.45;;;;;;;;;;5008220;28;20049;-70
2021/07/13 09:34:19;;;;;;;8.35;7.63;;;;;;;;;;5007760;28;20044;-70
2021/07/13 09:36:54;;;;;;;8.52;7.82;;;;;;;;;;5007986;28;20038;-69
2021/07/13 09:39:26;;;;;;;8.45;7.95;;;;;;;;;;5008025;28;20037;-71
2021/07/13 09:41:54;;;;;;;9.43;8.48;;;;;;;;;;5008678;28;20032;-71
2021/07/13 09:44:23;;;;;;;9.57;8.88;;;;;;;;;;5010090;28;20034;-72
2021/07/13 09:46:48;;;;;;;9.57;8.85;;;;;;;;;;5009077;28;20387;-70
2021/07/13 09:49:21;;;;;;;9.32;8.55;;;;;;;;;;5010724;28;20037;-68
2021/07/13 09:51:46;;;;;;;9.15;8.45;;;;;;;;;;5011144;28;20034;-70
2021/07/13 09:54:27;;;;;;;5.80;5.33;;;;;;;;;;5007036;28;20027;-69
2021/07/13 09:56:52;;;;;;;4.13;2.65;;;;;;;;;;4992238;28;20607;-70
2021/07/13 09:59:17;;;;;;;7.93;1.40;;;;;;;;;;4994460;28;20014;-70
2021/07/13 10:01:43;;;;;;;4.75;1.40;;;;;;;;;;4992166;28;20288;-70
2021/07/13 10:04:08;;;;;;;1.00;0.82;;;;;;;;;;4991572;28;20038;-69
2021/07/13 10:06:33;;;;;;;0.50;0.50;;;;;;;;;;5012970;28;20031;-69
2021/07/13 10:08:59;;;;;;;1.48;0.70;;;;;;;;;;5011145;28;20030;-70
2021/07/13 10:11:25;;;;;;;2.63;0.90;;;;;;;;;;5011968;28;20375;-70
2021/07/13 10:13:50;;;;;;;0.63;0.40;;;;;;;;;;5009406;28;20073;-71
2021/07/13 10:16:15;;;;;;;1.10;0.70;;;;;;;;;;5010189;28;20042;-70
2021/07/13 10:18:41;;;;;;;1.10;0.45;;;;;;;;;;5009824;28;20113;-69
2021/07/13 10:21:06;;;;;;;2.15;0.73;;;;;;;;;;5010902;28;20038;-69
2021/07/13 10:23:31;;;;;;;1.63;0.50;;;;;;;;;;5012129;28;20459;-70
2021/07/13 10:25:57;;;;;;;1.58;0.47;;;;;;;;;;5011519;28;20045;-70
2021/07/13 10:28:31;;;;;;;1.55;0.43;;;;;;;;;;5010897;28;20034;-70
2021/07/13 10:30:57;;;;;;;0.70;0.30;;;;;;;;;;5011029;28;20037;-70
2021/07/13 10:33:26;;;;;;;0.32;0.30;;;;;;;;;;5010405;28;20121;-72
2021/07/13 10:35:51;;;;;;;1.30;0.30;;;;;;;;;;5009677;28;20026;-71
2021/07/13 10:38:21;;;;;;;1.35;0.30;;;;;;;;;;5012484;28;20025;-70
2021/07/13 10:40:46;;;;;;;3.47;0.30;;;;;;;;;;5009898;28;20038;-69
2021/07/13 10:43:16;;;;;;;0.80;0.40;;;;;;;;;;5010285;28;20431;-70
2021/07/13 10:45:44;;;;;;;3.47;0.30;;;;;;;;;;5010642;28;20034;-70
2021/07/13 10:48:20;;;;;;;2.83;0.38;;;;;;;;;;5026083;28;20058;-70
2021/07/13 10:50:48;;;;;;;0.43;0.30;;;;;;;;;;5010806;28;20022;-70
2021/07/13 10:53:22;;;;;;;1.35;0.50;;;;;;;;;;5011927;28;20029;-71
2021/07/13 10:55:49;;;;;;;2.65;0.47;;;;;;;;;;5010475;28;20470;-70
2021/07/13 10:58:14;;;;;;;1.25;0.30;;;;;;;;;;5009869;28;20109;-70
2021/07/13 11:00:58;;;;;;;1.33;0.40;;;;;;;;;;5010375;28;20133;-70
2021/07/13 11:03:32;;;;;;;1.75;0.20;;;;;;;;;;5010258;28;20073;-71
2021/07/13 11:05:57;;;;;;;1.13;0.63;;;;;;;;;;5010483;28;20037;-70
2021/07/13 11:08:41;;;;;;;1.10;0.37;;;;;;;;;;5011986;28;20068;-70
2021/07/13 11:11:10;;;;;;;1.20;0.35;;;;;;;;;;5010758;28;20272;-70
2021/07/13 11:13:36;;;;;;;0.40;0.38;;;;;;;;;;5009754;28;20026;-70
2021/07/13 11:16:02;;;;;;;1.33;0.40;;;;;;;;;;5010424;28;20690;-68
2021/07/13 11:18:28;;;;;;;4.13;0.40;;;;;;;;;;5010573;28;20041;-69
2021/07/13 11:20:54;;;;;;;0.73;0.20;;;;;;;;;;5010306;28;20049;-70
2021/07/13 11:23:28;;;;;;;0.32;0.30;;;;;;;;;;5011370;28;20061;-70
2021/07/13 11:26:06;;;;;;;3.00;0.38;;;;;;;;;;5010082;28;20038;-70
2021/07/13 11:28:57;;;;;;;0.50;0.38;;;;;;;;;;5009003;28;20030;-69
2021/07/13 11:31:27;;;;;;;0.60;0.20;;;;;;;;;;5007840;28;20169;-70
2021/07/13 11:33:52;;;;;;;0.40;0.20;;;;;;;;;;5007027;28;20674;-70
2021/07/13 11:36:44;;;;;;;2.13;0.40;;;;;;;;;;5009505;28;20124;-71
2021/07/13 11:39:13;;;;;;;0.93;0.32;;;;;;;;;;5000009;28;20113;-71
2021/07/13 11:41:40;;;;;;;1.40;0.43;;;;;;;;;;5009699;28;20018;-70
2021/07/13 11:44:07;;;;;;;0.80;0.20;;;;;;;;;;5009823;28;20044;-70
2021/07/13 11:46:35;;;;;;;0.20;0.10;;;;;;;;;;5008539;28;20458;-69
2021/07/13 11:49:00;;;;;;;0.93;0.30;;;;;;;;;;5009588;28;20498;-69
2021/07/13 11:51:28;;;;;;;0.52;0.20;;;;;;;;;;5009076;28;20044;-70
2021/07/13 11:54:01;;;;;;;2.33;0.30;;;;;;;;;;5008944;28;20117;-71
2021/07/13 11:56:26;;;;;;;1.48;0.20;;;;;;;;;;5010218;28;20064;-71
2021/07/13 11:58:52;;;;;;;1.33;0.30;;;;;;;;;;5008287;28;20069;-71
2021/07/13 12:01:21;;;;;;;0.98;0.15;;;;;;;;;;5009728;28;20038;-71
2021/07/13 12:03:50;;;;;;;1.95;0.30;;;;;;;;;;5009272;28;20033;-71
2021/07/13 12:06:16;;;;;;;0.45;0.20;;;;;;;;;;5008001;28;20607;-70
2021/07/13 12:08:42;;;;;;;0.15;0.10;;;;;;;;;;5007553;28;20028;-70
2021/07/13 12:11:08;;;;;;;1.65;0.10;;;;;;;;;;5011203;28;20021;-70
2021/07/13 12:13:34;;;;;;;1.55;0.10;;;;;;;;;;5009132;28;20030;-70
2021/07/13 12:16:18;;;;;;;0.38;0.10;;;;;;;;;;5009648;28;20038;-69
2021/07/13 12:18:43;;;;;;;0.60;0.20;;;;;;;;;;5009217;28;20104;-69
2021/07/13 12:21:13;;;;;;;2.05;0.20;;;;;;;;;;5009219;28;20045;-69
2021/07/13 12:23:39;;;;;;;0.32;0.10;;;;;;;;;;5010028;28;20040;-68
2021/07/13 12:26:20;;;;;;;0.60;0.10;;;;;;;;;;5007923;28;20042;-70
2021/07/13 12:29:04;;;;;;;0.00;0.00;;;;;;;;;;5008964;28;20129;-71
2021/07/13 12:31:30;;;;;;;2.20;0.20;;;;;;;;;;5008860;28;20113;-70
2021/07/13 12:33:56;;;;;;;1.80;0.30;;;;;;;;;;5008633;28;20108;-70
2021/07/13 12:36:27;;;;;;;1.40;0.20;;;;;;;;;;5008790;28;20092;-70
2021/07/13 12:38:54;;;;;;;0.98;0.20;;;;;;;;;;5007894;28;20037;-70
2021/07/13 12:41:20;;;;;;;0.17;0.10;;;;;;;;;;5010615;28;20025;-72
2021/07/13 12:43:45;;;;;;;0.20;0.20;;;;;;;;;;5008274;28;20053;-69
2021/07/13 12:46:27;;;;;;;1.15;0.38;;;;;;;;;;5008741;28;20026;-70
2021/07/13 12:48:52;;;;;;;0.25;0.20;;;;;;;;;;5008822;28;20064;-70
2021/07/13 12:51:28;;;;;;;0.15;0.10;;;;;;;;;;5007197;28;20103;-71
2021/07/13 12:54:03;;;;;;;0.77;0.20;;;;;;;;;;5007899;28;20033;-70
2021/07/13 12:56:29;;;;;;;1.30;0.30;;;;;;;;;;5009302;28;20492;-71
2021/07/13 12:59:08;;;;;;;0.30;0.25;;;;;;;;;;5007499;28;20042;-70
2021/07/13 13:01:33;;;;;;;0.13;0.13;;;;;;;;;;5008541;28;20066;-71
2021/07/13 13:04:17;;;;;;;0.20;0.20;;;;;;;;;;5007935;28;20092;-70
2021/07/13 13:06:45;;;;;;;0.20;0.20;;;;;;;;;;5008290;28;20022;-69
2021/07/13 13:09:12;;;;;;;0.32;0.17;;;;;;;;;;5003813;28;20431;-69
2021/07/13 13:11:39;;;;;;;0.85;0.20;;;;;;;;;;4990982;28;20046;-69
2021/07/13 13:14:06;;;;;;;0.77;0.22;;;;;;;;;;4988954;28;20030;-68
2021/07/13 13:16:34;;;;;;;0.50;0.40;;;;;;;;;;4988793;28;20034;-69
2021/07/13 13:19:00;;;;;;;1.10;0.40;;;;;;;;;;4989288;28;20497;-69
2021/07/13 13:21:27;;;;;;;2.08;0.93;;;;;;;;;;4989038;28;20111;-69
2021/07/13 13:23:53;;;;;;;28.45;1.65;;;;;;;;;;5009882;28;20196;-70
2021/07/13 13:26:18;;;;;;;19.80;1.75;;;;;;;;;;5014407;28;20514;-70
2021/07/13 13:28:44;;;;;;;1.52;0.47;;;;;;;;;;5010967;28;20084;-69
2021/07/13 13:31:09;;;;;;;0.80;0.80;;;;;;;;;;5010772;28;20100;-68
2021/07/13 13:33:36;;;;;;;4.82;1.20;;;;;;;;;;5012070;28;20087;-69
2021/07/13 13:36:10;;;;;;;1.73;0.93;;;;;;;;;;5012323;28;20092;-69
2021/07/13 13:38:44;;;;;;;1.23;0.80;;;;;;;;;;5013843;28;20010;-68
2021/07/13 13:41:10;;;;;;;2.83;1.30;;;;;;;;;;5012469;28;20503;-69
2021/07/13 13:43:36;;;;;;;3.33;1.63;;;;;;;;;;5011321;28;20049;-69
2021/07/13 13:46:01;;;;;;;3.03;1.83;;;;;;;;;;5012126;28;20069;-69
2021/07/13 13:48:26;;;;;;;7.10;1.83;;;;;;;;;;5012198;28;20105;-69
2021/07/13 13:50:51;;;;;;;124.22;6.20;;;;;;;;;;5012036;28;20048;-68
2021/07/13 13:53:17;;;;;;;22.63;4.28;;;;;;;;;;5012889;28;20018;-68
2021/07/13 13:55:42;;;;;;;9.13;5.00;;;;;;;;;;5011170;28;20038;-68
2021/07/13 13:58:07;;;;;;;5.20;4.65;;;;;;;;;;5011769;28;20057;-66
2021/07/13 14:00:32;;;;;;;5.95;4.57;;;;;;;;;;5011694;28;20088;-67
2021/07/13 14:02:58;;;;;;;5.38;4.85;;;;;;;;;;5011005;28;20018;-67
2021/07/13 14:05:25;;;;;;;4.80;3.03;;;;;;;;;;5012438;28;20223;-66
2021/07/13 14:07:50;;;;;;;3.63;2.65;;;;;;;;;;5011245;28;20034;-67
2021/07/13 14:10:16;;;;;;;7.28;2.70;;;;;;;;;;5011307;28;20045;-67
2021/07/13 14:12:41;;;;;;;8.40;1.35;;;;;;;;;;5010946;28;20026;-67
2021/07/13 14:15:07;;;;;;;8.93;2.25;;;;;;;;;;5011234;28;20638;-67
2021/07/13 14:17:33;;;;;;;9.60;2.63;;;;;;;;;;5013384;28;20093;-67
2021/07/13 14:19:58;;;;;;;4.72;2.75;;;;;;;;;;5011057;28;20038;-67
2021/07/13 14:22:24;;;;;;;3.95;2.92;;;;;;;;;;5010711;28;20030;-68
2021/07/13 14:24:50;;;;;;;4.95;4.05;;;;;;;;;;5011054;28;20562;-68
2021/07/13 14:27:15;;;;;;;11.50;4.13;;;;;;;;;;5011197;28;20030;-68
2021/07/13 14:29:40;;;;;;;3.22;2.90;;;;;;;;;;5010908;28;20156;-66
2021/07/13 14:32:06;;;;;;;4.10;3.13;;;;;;;;;;5011730;28;20464;-66
2021/07/13 14:34:32;;;;;;;3.25;2.92;;;;;;;;;;5010546;28;20046;-66
2021/07/13 14:36:57;;;;;;;3.80;2.40;;;;;;;;;;5011036;28;20045;-66
2021/07/13 14:39:23;;;;;;;3.00;2.45;;;;;;;;;;5010221;28;20046;-67
2021/07/13 14:41:48;;;;;;;3.65;2.55;;;;;;;;;;5010766;28;20518;-67
2021/07/13 14:44:13;;;;;;;3.78;2.60;;;;;;;;;;5012547;28;20045;-67